Latest Weather Observations for Coffs Harbour

IDN60801

Issued at 7:06 am EDT Tuesday 27 January 2015 (issued every 30 minutes, with the page automatically refreshed every 10 minutes)

About weather observations | Map of weather stations | Latest weather observations for NSW | Other Formats
Station Details ID: 059040 Name: COFFS HARBOUR MO Lat: -30.31 Lon: 153.12 Height: 5.0 m
Data from the previous 72 hours. | See also: Recent months at Coffs Harbour
Date/Time
EDT
Temp
°C
App
Temp
°C
Dew
Point
Rel
Hum
%
Delta-T
°C
Wind Press
QNH
hPa
Press
MSL
hPa
Rain
since 9 am
mm
Dir
 
Spd
km/h
Gust
km/h
Spd
kts
Gust
kts
27/07:00am 21.7 23.5 21.2 97 0.3 NE 13 19 7 10 1009.7 - 66.0
27/06:39am 21.4 22.9 20.6 95 0.5 NNE 13 20 7 11 1009.6 - 65.0
27/06:30am 21.5 22.9 20.3 93 0.8 NNE 13 19 7 10 1009.5 - 64.8
27/05:30am 23.5 24.3 20.6 84 1.9 E 17 24 9 13 1008.9 - 64.0
27/05:00am 23.6 23.6 20.9 85 1.8 ESE 22 33 12 18 1008.6 - 63.8
27/04:30am 23.9 24.4 21.2 85 1.8 E 20 28 11 15 1008.7 - 63.6
27/04:00am 23.8 23.9 21.1 85 1.8 E 22 28 12 15 1008.8 - 63.6
27/03:30am 23.7 23.6 21.4 87 1.5 E 24 32 13 17 1008.8 - 63.6
27/03:00am 23.5 24.3 21.8 90 1.1 ESE 20 30 11 16 1009.1 1009.1 63.4
27/02:30am 23.4 24.2 21.8 91 1.1 ESE 20 28 11 15 1009.3 - 63.2
27/02:24am 23.3 24.1 21.7 91 1.1 E 20 28 11 15 1009.3 - 62.8
27/02:00am 23.4 24.4 22.2 93 0.8 ESE 20 28 11 15 1009.7 - 62.2
27/01:30am 23.5 24.6 21.9 91 1.1 ESE 19 30 10 16 1009.8 - 60.4
27/01:00am 23.5 24.1 22.1 92 0.9 SE 22 30 12 16 1010.1 - 58.8
27/12:31am 24.0 24.0 22.4 91 1.1 SE 26 37 14 20 1010.1 - 54.0
27/12:30am 24.1 24.1 22.4 90 1.1 SE 26 37 14 20 1010.1 - 54.0
27/12:19am 24.1 24.1 22.4 90 1.1 ESE 26 37 14 20 1010.0 - 53.6
27/12:00am 24.0 23.4 22.6 92 0.9 ESE 30 41 16 22 1009.9 1009.9 53.6
 
Date/Time
EDT
Temp
°C
App
Temp
°C
Dew
Point
Rel
Hum
%
Delta-T
°C
Wind Press
QNH
hPa
Press
MSL
hPa
Rain
since 9 am
mm
Dir
 
Spd
km/h
Gust
km/h
Spd
kts
Gust
kts
26/11:53pm 24.0 23.2 22.4 91 1.1 ESE 30 37 16 20 1010.0 - 53.2
26/11:30pm 24.0 24.6 22.8 93 0.8 ESE 24 33 13 18 1010.2 - 52.8
26/11:21pm 23.9 23.8 22.9 94 0.7 ESE 28 35 15 19 1010.2 - 52.8
26/11:11pm 23.8 24.2 23.1 96 0.5 ESE 26 35 14 19 1010.3 - 52.8
26/11:08pm 23.7 24.1 23.2 97 0.3 ESE 26 35 14 19 1010.3 - 52.6
26/11:00pm 22.4 23.4 22.2 99 0.1 E 20 32 11 17 1010.4 - 52.6
26/10:54pm 22.3 24.2 22.1 99 0.1 E 15 26 8 14 1010.6 - 52.2
26/10:30pm 22.6 26.2 22.4 99 0.1 NW 7 13 4 7 1010.8 - 50.4
26/10:00pm 22.1 22.8 21.6 97 0.3 NE 20 26 11 14 1011.2 - 26.8
26/09:50pm 22.1 24.0 21.4 96 0.5 WNW 13 15 7 8 1010.9 - 15.6
26/09:30pm 22.5 24.8 22.0 97 0.3 W 13 17 7 9 1010.4 - 13.0
26/09:21pm 22.6 25.8 22.3 98 0.2 WNW 9 15 5 8 1010.3 - 13.0
26/09:12pm 22.6 25.4 22.3 98 0.2 WNW 11 13 6 7 1010.2 - 12.8
26/09:02pm 22.6 25.8 22.4 99 0.1 WNW 9 15 5 8 1010.3 - 12.8
26/09:00pm 22.6 25.8 22.4 99 0.1 WNW 9 15 5 8 1010.3 1010.3 12.8
26/08:51pm 22.5 24.9 22.2 98 0.2 WNW 13 15 7 8 1010.3 - 12.8
26/08:32pm 22.5 24.9 22.2 98 0.2 NNW 13 15 7 8 1010.2 - 12.8
26/08:30pm 22.5 24.9 22.2 98 0.2 N 13 15 7 8 1010.2 - 12.8
26/08:00pm 22.3 23.4 22.0 98 0.2 E 19 24 10 13 1010.6 - 11.6
26/07:30pm 21.6 20.1 20.9 96 0.5 S 30 46 16 25 1010.5 - 4.6
26/07:25pm 21.8 21.5 21.1 96 0.5 S 24 46 13 25 1010.4 - 2.4
26/07:00pm 22.2 20.7 20.3 89 1.2 WSW 28 33 15 18 1009.9 - 0.6
26/06:52pm 23.6 23.3 21.9 90 1.1 SSW 26 33 14 18 1009.6 - 0.6
26/06:30pm 24.8 28.6 23.4 92 1.0 E 9 13 5 7 1009.2 - 0.4
26/06:28pm 24.8 29.0 23.4 92 1.0 ESE 7 13 4 7 1009.2 - 0.4
26/06:00pm 24.8 29.0 23.2 91 1.1 SSE 6 9 3 5 1008.9 1008.9 0.2
26/05:30pm 25.6 29.2 22.3 82 2.2 ESE 7 11 4 6 1008.7 - 0.0
26/05:00pm 26.1 28.3 22.6 81 2.4 ESE 15 20 8 11 1008.4 - 0.0
26/04:30pm 26.4 28.3 22.7 80 2.5 E 17 26 9 14 1008.9 - 0.0
26/04:00pm 26.5 29.1 22.6 79 2.6 ESE 13 19 7 10 1008.7 - 0.0
26/03:30pm 26.9 29.0 22.5 77 3.0 E 15 17 8 9 1008.8 - 0.0
26/03:00pm 27.1 28.5 22.5 76 3.1 ESE 19 28 10 15 1008.4 1008.4 0.0
26/02:30pm 26.6 28.6 22.2 77 3.0 ESE 15 19 8 10 1008.5 - 0.0
26/02:00pm 26.8 29.7 23.1 80 2.5 ESE 13 17 7 9 1008.4 - 0.0
26/01:30pm 27.0 28.8 22.6 77 3.0 ESE 17 22 9 12 1008.8 - 0.0
26/01:00pm 27.5 29.2 22.4 73 3.4 ESE 17 22 9 12 1008.9 - 0.0
26/12:30pm 28.2 31.3 24.8 82 2.4 ESE 17 22 9 12 1009.1 - 0.0
26/12:00pm 26.7 29.4 24.2 86 1.7 S 17 20 9 11 1009.4 1009.4 0.0
26/11:30am 28.2 30.2 23.6 76 3.2 S 19 24 10 13 1009.5 - 0.0
26/11:00am 28.3 30.6 23.4 75 3.4 S 17 20 9 11 1009.4 - 0.0
26/10:30am 27.5 29.1 22.9 76 3.1 S 19 24 10 13 1009.5 - 0.0
26/10:00am 28.5 30.5 23.9 76 3.2 S 20 28 11 15 1009.3 - 0.0
26/09:30am 28.1 30.3 23.2 74 3.3 S 17 20 9 11 1008.9 - 0.0
26/09:00am 27.2 28.4 21.5 71 3.8 SW 17 20 9 11 1008.9 1008.9 0.2
26/08:30am 25.9 26.9 21.1 75 3.2 SW 17 22 9 12 1008.8 - 0.2
26/08:00am 26.0 26.8 21.4 76 3.1 WSW 19 28 10 15 1008.7 - 0.2
26/07:30am 25.2 27.2 21.5 80 2.5 SW 13 15 7 8 1008.6 - 0.2
26/07:00am 24.6 27.4 22.3 87 1.5 SW 11 13 6 7 1008.2 - 0.2
26/06:30am 23.9 25.6 21.6 87 1.5 WSW 15 20 8 11 1007.7 - 0.2
26/06:00am 22.6 25.1 21.1 91 1.0 WNW 9 9 5 5 1007.2 1007.2 0.2
26/05:30am 22.2 25.0 20.8 92 0.9 W 7 11 4 6 1006.8 - 0.2
26/05:00am 22.0 24.2 20.5 91 1.0 SSW 9 11 5 6 1006.2 - 0.2
26/04:30am 21.9 25.1 20.5 92 0.9 W 4 9 2 5 1005.5 - 0.2
26/04:00am 22.1 26.2 20.7 92 0.9 CALM 0 0 0 0 1005.2 - 0.2
26/03:30am 22.1 25.8 20.7 92 0.9 S 2 7 1 4 1005.3 - 0.2
26/03:00am 22.3 26.3 20.6 90 1.1 CALM 0 0 0 0 1005.2 1005.2 0.2
26/02:30am 22.4 25.2 20.5 89 1.2 WNW 6 7 3 4 1005.3 - 0.2
26/02:00am 22.8 25.6 20.9 89 1.2 W 7 7 4 4 1005.4 - 0.2
26/01:30am 23.0 25.6 20.5 86 1.6 NW 7 9 4 5 1005.6 - 0.2
26/01:00am 23.3 26.9 20.6 85 1.8 SW 2 7 1 4 1005.8 - 0.2
26/12:30am 23.6 26.4 20.5 83 2.0 SW 6 7 3 4 1005.9 - 0.2
26/12:00am 24.3 27.2 21.0 82 2.2 SSW 7 9 4 5 1006.0 1006.0 0.2
 
Date/Time
EDT
Temp
°C
App
Temp
°C
Dew
Point
Rel
Hum
%
Delta-T
°C
Wind Press
QNH
hPa
Press
MSL
hPa
Rain
since 9 am
mm
Dir
 
Spd
km/h
Gust
km/h
Spd
kts
Gust
kts
25/11:30pm 25.1 27.6 21.8 82 2.2 NW 11 13 6 7 1006.1 - 0.2
25/11:00pm 25.0 27.5 21.7 82 2.2 WNW 11 13 6 7 1006.3 - 0.2
25/10:30pm 24.9 27.3 22.2 85 1.8 NW 13 15 7 8 1006.0 - 0.2
25/10:00pm 25.1 27.5 22.2 84 1.9 WNW 13 15 7 8 1006.1 - 0.2
25/09:30pm 24.8 28.3 22.1 85 1.8 NW 7 13 4 7 1005.7 - 0.2
25/09:00pm 25.0 28.3 21.9 83 2.1 NNW 7 9 4 5 1005.2 1005.2 0.2
25/08:30pm 25.4 28.7 21.5 79 2.6 NNW 6 9 3 5 1005.0 - 0.2
25/08:00pm 26.8 29.3 21.1 71 3.8 WNW 9 11 5 6 1004.4 - 0.2
25/07:30pm 28.4 30.1 20.9 64 5.0 NW 13 15 7 8 1004.2 - 0.2
25/07:00pm 29.4 30.5 20.5 58 5.9 NW 15 19 8 10 1004.1 - 0.2
25/06:30pm 30.7 33.3 22.0 59 5.9 NNW 11 15 6 8 1003.7 - 0.2
25/06:00pm 31.4 33.5 21.0 54 7.0 NNW 11 15 6 8 1003.2 1003.2 0.2
25/05:30pm 31.0 33.8 22.3 60 5.9 N 11 15 6 8 1003.2 - 0.2
25/05:00pm 29.4 30.8 21.1 61 5.5 NNW 15 22 8 12 1003.1 - 0.0
25/04:30pm 28.3 29.7 21.8 68 4.4 N 17 24 9 13 1003.5 - 0.0
25/04:00pm 28.6 29.4 21.4 65 4.8 N 19 28 10 15 1003.4 - 0.0
25/03:30pm 29.5 30.7 20.6 58 5.9 NNE 15 22 8 12 1003.2 - 0.0
25/03:00pm 31.5 31.7 21.4 55 6.8 NNE 22 30 12 16 1002.3 1002.3 0.0
25/02:30pm 30.8 33.5 23.5 65 5.0 NE 15 19 8 10 1003.0 - 0.0
25/02:00pm 31.3 33.7 22.9 61 5.8 E 15 19 8 10 1002.7 - 0.0
25/01:30pm 30.6 33.4 23.0 64 5.2 E 13 17 7 9 1003.1 - 0.0
25/01:00pm 29.8 32.3 22.5 65 5.0 E 13 17 7 9 1003.3 - 0.0
25/12:30pm 30.9 33.3 23.0 62 5.4 ESE 15 17 8 9 1003.4 - 0.0
25/12:00pm 30.8 33.7 22.4 61 5.7 ESE 11 15 6 8 1003.6 1003.6 0.0
25/11:30am 29.9 32.8 21.8 62 5.5 ESE 9 15 5 8 1004.0 - 0.0
25/11:00am 29.1 31.6 21.8 64 4.9 SE 11 15 6 8 1004.0 - 0.0
25/10:30am 28.5 30.8 21.3 65 4.8 ESE 11 15 6 8 1004.1 - 0.0
25/10:00am 27.8 30.4 22.7 74 3.5 E 13 15 7 8 1004.3 - 0.0
25/09:30am 27.2 29.7 22.4 75 3.2 E 13 19 7 10 1004.2 - 0.0
25/09:00am 27.2 30.7 21.9 73 3.6 ENE 6 11 3 6 1004.2 1004.2 0.0
25/08:30am 26.2 29.3 22.1 78 2.7 N 9 13 5 7 1004.3 - 0.0
25/08:00am 25.3 27.9 21.2 78 2.7 N 9 11 5 6 1004.4 - 0.0
25/07:30am 24.5 27.6 22.2 87 1.5 NW 9 11 5 6 1004.4 - 0.0
25/07:00am 23.2 26.3 22.2 94 0.7 N 9 11 5 6 1004.1 - 0.0
25/06:30am 21.6 24.5 21.1 97 0.3 N 7 9 4 5 1004.2 - 0.0
25/06:00am 21.6 25.9 21.1 97 0.3 CALM 0 0 0 0 1004.2 1004.2 0.0
25/05:30am 21.7 25.3 21.2 97 0.3 WNW 4 9 2 5 1003.9 - 0.0
25/05:00am 22.0 24.6 21.2 95 0.5 W 9 13 5 7 1004.2 - 0.0
25/04:30am 22.3 25.1 21.5 95 0.5 SW 9 13 5 7 1004.2 - 0.0
25/04:00am 22.3 25.1 21.5 95 0.5 W 9 13 5 7 1004.0 - 0.0
25/03:30am 22.2 24.2 21.5 96 0.5 N 13 15 7 8 1003.7 - 0.0
25/03:00am 22.2 24.9 21.4 95 0.5 N 9 11 5 6 1003.7 1003.7 0.0
25/02:30am 22.2 24.2 21.5 96 0.5 N 13 15 7 8 1004.0 - 0.0
25/02:00am 22.2 25.5 21.5 96 0.5 N 6 9 3 5 1004.7 - 0.0
25/01:30am 22.3 25.5 21.6 96 0.5 N 7 9 4 5 1005.2 - 0.0
25/01:00am 22.4 25.5 21.4 94 0.7 WNW 7 9 4 5 1005.5 - 0.0
25/12:30am 22.7 25.2 21.7 94 0.7 NW 11 13 6 7 1005.8 - 0.0
25/12:00am 22.6 25.9 21.8 95 0.5 NW 7 7 4 4 1006.0 1006.0 0.0
 
Date/Time
EDT
Temp
°C
App
Temp
°C
Dew
Point
Rel
Hum
%
Delta-T
°C
Wind Press
QNH
hPa
Press
MSL
hPa
Rain
since 9 am
mm
Dir
 
Spd
km/h
Gust
km/h
Spd
kts
Gust
kts
24/11:30pm 22.6 27.1 21.6 94 0.7 CALM 0 0 0 0 1006.0 - 0.0
24/11:00pm 22.6 26.7 21.6 94 0.7 NW 2 7 1 4 1006.2 - 0.0
24/10:30pm 23.0 27.6 21.8 93 0.8 CALM 0 0 0 0 1006.2 - 0.0
24/10:00pm 23.1 26.9 21.7 92 0.9 WNW 4 7 2 4 1006.2 - 0.0
24/09:30pm 23.4 26.3 21.8 91 1.1 WNW 9 9 5 5 1006.0 - 0.0
24/09:00pm 23.6 27.1 21.9 90 1.1 N 6 9 3 5 1005.5 1005.5 0.0
24/08:30pm 23.9 27.3 21.6 87 1.5 NNE 6 7 3 4 1005.2 - 0.0
24/08:00pm 24.7 27.5 21.6 83 2.1 NE 9 11 5 6 1004.9 - 0.0
24/07:30pm 25.4 28.3 21.7 80 2.5 ENE 9 13 5 7 1004.6 - 0.0
24/07:00pm 26.1 28.4 21.3 75 3.2 ENE 11 13 6 7 1004.6 - 0.0
24/06:30pm 26.7 29.5 21.5 73 3.5 E 9 13 5 7 1004.7 - 0.0
24/06:00pm 26.8 29.1 21.3 72 3.7 E 11 13 6 7 1004.7 1004.7 0.0
24/05:30pm 27.4 30.4 22.6 75 3.2 ESE 11 13 6 7 1004.9 - 0.0
24/05:00pm 26.6 29.3 22.2 77 3.0 SSE 11 15 6 8 1005.2 - 0.0
24/04:30pm 27.3 29.8 22.5 75 3.2 SSE 13 19 7 10 1005.3 - 0.0
24/04:00pm 27.2 29.3 22.4 75 3.2 SE 15 19 8 10 1005.7 - 0.0
24/03:30pm 27.4 29.0 22.1 73 3.6 SE 17 20 9 11 1006.1 - 0.0
24/03:00pm 27.2 28.5 21.7 72 3.7 SE 17 24 9 13 1006.4 1006.4 0.0
24/02:30pm 27.0 27.8 21.3 71 3.8 SSE 19 26 10 14 1006.5 - 0.0
24/02:00pm 27.1 28.0 21.6 72 3.7 SSE 19 26 10 14 1006.8 - 0.0
24/01:30pm 27.4 28.3 21.9 72 3.7 SSE 20 26 11 14 1007.0 - 0.0
24/01:00pm 27.8 28.4 21.1 67 4.4 SSE 19 24 10 13 1007.2 - 0.0
24/12:30pm 27.6 28.3 20.4 65 4.7 SSE 17 22 9 12 1007.3 - 0.0
24/12:00pm 27.7 28.6 21.5 69 4.1 S 19 24 10 13 1007.5 1007.5 0.0
24/11:30am 27.3 28.6 21.6 71 3.8 S 17 20 9 11 1007.8 - 0.0
24/11:00am 26.5 27.1 20.3 68 4.1 SW 17 20 9 11 1008.0 - 0.0
24/10:30am 26.4 27.3 20.9 72 3.6 SW 17 22 9 12 1008.2 - 0.0
24/10:00am 26.5 27.8 21.7 75 3.2 WSW 17 22 9 12 1008.1 - 0.0
24/09:30am 24.9 25.5 20.2 75 3.1 WSW 17 22 9 12 1008.4 - 0.0
24/09:00am 24.3 26.2 20.6 80 2.4 SW 11 17 6 9 1008.5 1008.5 1.0
24/08:30am 23.9 26.7 21.6 87 1.5 WSW 9 13 5 7 1008.3 - 1.0
24/08:00am 22.4 25.1 20.7 90 1.1 W 7 9 4 5 1008.2 - 1.0
24/07:30am 21.8 24.0 20.4 92 0.9 SW 9 13 5 7 1008.2 - 1.0

Other Formats:

Comma delimited format used in spreadsheet applications
http://www.bom.gov.au/fwo/IDN60801/IDN60801.94791.axf

JavaScript Object Notation format (JSON) in row-major order
http://www.bom.gov.au/fwo/IDN60801/IDN60801.94791.json